sensor_id;sensor_type;location;lat;lon;timestamp;P1;durP1;ratioP1;P2;durP2;ratioP2
72037;SDS011;59900;50.788;12.904;2022-12-05T00:00:32;21.03;;;10.17;;
72037;SDS011;59900;50.788;12.904;2022-12-05T00:02:57;21.00;;;11.00;;
72037;SDS011;59900;50.788;12.904;2022-12-05T00:05:22;22.40;;;10.13;;
72037;SDS011;59900;50.788;12.904;2022-12-05T00:07:48;22.05;;;10.57;;
72037;SDS011;59900;50.788;12.904;2022-12-05T00:10:13;21.70;;;10.40;;
72037;SDS011;59900;50.788;12.904;2022-12-05T00:12:39;21.03;;;10.30;;
72037;SDS011;59900;50.788;12.904;2022-12-05T00:15:04;22.70;;;10.97;;
72037;SDS011;59900;50.788;12.904;2022-12-05T00:17:30;20.00;;;9.60;;
72037;SDS011;59900;50.788;12.904;2022-12-05T00:19:56;21.38;;;9.52;;
72037;SDS011;59900;50.788;12.904;2022-12-05T00:22:21;21.67;;;10.30;;
72037;SDS011;59900;50.788;12.904;2022-12-05T00:24:47;19.33;;;9.60;;
72037;SDS011;59900;50.788;12.904;2022-12-05T00:27:12;20.80;;;9.80;;
72037;SDS011;59900;50.788;12.904;2022-12-05T00:29:37;21.23;;;10.10;;
72037;SDS011;59900;50.788;12.904;2022-12-05T00:32:02;18.23;;;9.33;;
72037;SDS011;59900;50.788;12.904;2022-12-05T00:34:28;20.40;;;10.03;;
72037;SDS011;59900;50.788;12.904;2022-12-05T00:36:53;20.50;;;10.23;;
72037;SDS011;59900;50.788;12.904;2022-12-05T00:39:18;19.87;;;9.87;;
72037;SDS011;59900;50.788;12.904;2022-12-05T00:41:44;19.80;;;9.80;;
72037;SDS011;59900;50.788;12.904;2022-12-05T00:44:10;19.35;;;9.60;;
72037;SDS011;59900;50.788;12.904;2022-12-05T00:46:37;20.52;;;9.35;;
72037;SDS011;59900;50.788;12.904;2022-12-05T00:49:03;21.27;;;10.27;;
72037;SDS011;59900;50.788;12.904;2022-12-05T00:51:30;20.30;;;9.43;;
72037;SDS011;59900;50.788;12.904;2022-12-05T00:53:58;19.45;;;9.35;;
72037;SDS011;59900;50.788;12.904;2022-12-05T00:56:26;20.77;;;10.00;;
72037;SDS011;59900;50.788;12.904;2022-12-05T00:58:53;21.92;;;10.15;;
72037;SDS011;59900;50.788;12.904;2022-12-05T01:01:21;22.08;;;11.23;;
72037;SDS011;59900;50.788;12.904;2022-12-05T01:03:50;21.75;;;10.95;;
72037;SDS011;59900;50.788;12.904;2022-12-05T01:06:17;24.27;;;10.52;;
72037;SDS011;59900;50.788;12.904;2022-12-05T01:08:42;19.97;;;9.40;;
72037;SDS011;59900;50.788;12.904;2022-12-05T01:11:08;21.77;;;9.73;;
72037;SDS011;59900;50.788;12.904;2022-12-05T01:13:35;20.95;;;9.65;;
72037;SDS011;59900;50.788;12.904;2022-12-05T01:16:01;19.70;;;10.40;;
72037;SDS011;59900;50.788;12.904;2022-12-05T01:18:26;19.00;;;9.98;;
72037;SDS011;59900;50.788;12.904;2022-12-05T01:20:52;22.00;;;10.27;;
72037;SDS011;59900;50.788;12.904;2022-12-05T01:23:18;20.20;;;9.37;;
72037;SDS011;59900;50.788;12.904;2022-12-05T01:25:45;19.15;;;9.25;;
72037;SDS011;59900;50.788;12.904;2022-12-05T01:28:12;19.80;;;9.32;;
72037;SDS011;59900;50.788;12.904;2022-12-05T01:30:39;17.58;;;9.00;;
72037;SDS011;59900;50.788;12.904;2022-12-05T01:33:06;19.47;;;9.23;;
72037;SDS011;59900;50.788;12.904;2022-12-05T01:35:32;19.10;;;8.70;;
72037;SDS011;59900;50.788;12.904;2022-12-05T01:37:58;17.60;;;8.82;;
72037;SDS011;59900;50.788;12.904;2022-12-05T01:40:23;17.80;;;8.70;;
72037;SDS011;59900;50.788;12.904;2022-12-05T01:42:49;19.97;;;9.10;;
72037;SDS011;59900;50.788;12.904;2022-12-05T01:45:15;20.60;;;9.23;;
72037;SDS011;59900;50.788;12.904;2022-12-05T01:47:42;16.92;;;8.93;;
72037;SDS011;59900;50.788;12.904;2022-12-05T01:50:09;18.40;;;8.70;;
72037;SDS011;59900;50.788;12.904;2022-12-05T01:52:35;18.02;;;8.50;;
72037;SDS011;59900;50.788;12.904;2022-12-05T01:55:04;17.67;;;7.87;;
72037;SDS011;59900;50.788;12.904;2022-12-05T01:57:34;19.98;;;8.50;;
72037;SDS011;59900;50.788;12.904;2022-12-05T02:00:02;16.02;;;8.35;;
72037;SDS011;59900;50.788;12.904;2022-12-05T02:02:32;17.10;;;7.88;;
72037;SDS011;59900;50.788;12.904;2022-12-05T02:05:03;18.37;;;8.87;;
72037;SDS011;59900;50.788;12.904;2022-12-05T02:07:31;16.45;;;7.68;;
72037;SDS011;59900;50.788;12.904;2022-12-05T02:09:58;15.88;;;8.27;;
72037;SDS011;59900;50.788;12.904;2022-12-05T02:12:24;16.93;;;8.17;;
72037;SDS011;59900;50.788;12.904;2022-12-05T02:15:03;15.43;;;8.25;;
72037;SDS011;59900;50.788;12.904;2022-12-05T02:17:34;16.30;;;8.10;;
72037;SDS011;59900;50.788;12.904;2022-12-05T02:20:19;15.13;;;8.00;;
72037;SDS011;59900;50.788;12.904;2022-12-05T02:26:37;16.55;;;8.10;;
72037;SDS011;59900;50.788;12.904;2022-12-05T02:28:43;14.40;;;7.00;;
72037;SDS011;59900;50.788;12.904;2022-12-05T02:34:12;17.63;;;8.67;;
72037;SDS011;59900;50.788;12.904;2022-12-05T02:42:28;17.17;;;9.32;;
72037;SDS011;59900;50.788;12.904;2022-12-05T02:45:02;18.23;;;8.77;;
72037;SDS011;59900;50.788;12.904;2022-12-05T02:47:34;15.97;;;8.40;;
72037;SDS011;59900;50.788;12.904;2022-12-05T02:50:04;16.67;;;8.63;;
72037;SDS011;59900;50.788;12.904;2022-12-05T02:52:32;15.57;;;8.40;;
72037;SDS011;59900;50.788;12.904;2022-12-05T02:54:59;17.13;;;8.27;;
72037;SDS011;59900;50.788;12.904;2022-12-05T02:57:26;16.55;;;8.50;;
72037;SDS011;59900;50.788;12.904;2022-12-05T02:59:51;18.40;;;8.97;;
72037;SDS011;59900;50.788;12.904;2022-12-05T03:02:27;19.10;;;9.50;;
72037;SDS011;59900;50.788;12.904;2022-12-05T03:04:57;18.27;;;9.18;;
72037;SDS011;59900;50.788;12.904;2022-12-05T03:07:38;20.87;;;9.37;;
72037;SDS011;59900;50.788;12.904;2022-12-05T03:10:06;19.60;;;9.23;;
72037;SDS011;59900;50.788;12.904;2022-12-05T03:12:33;20.55;;;9.95;;
72037;SDS011;59900;50.788;12.904;2022-12-05T03:17:56;19.77;;;9.50;;
72037;SDS011;59900;50.788;12.904;2022-12-05T03:20:30;20.38;;;9.73;;
72037;SDS011;59900;50.788;12.904;2022-12-05T03:23:00;17.50;;;8.35;;
72037;SDS011;59900;50.788;12.904;2022-12-05T03:25:34;17.95;;;9.10;;
72037;SDS011;59900;50.788;12.904;2022-12-05T03:28:22;20.33;;;9.48;;
72037;SDS011;59900;50.788;12.904;2022-12-05T03:30:54;20.23;;;10.13;;
72037;SDS011;59900;50.788;12.904;2022-12-05T03:33:28;19.02;;;8.75;;
72037;SDS011;59900;50.788;12.904;2022-12-05T03:36:00;19.23;;;10.05;;
72037;SDS011;59900;50.788;12.904;2022-12-05T03:38:42;19.20;;;9.35;;
72037;SDS011;59900;50.788;12.904;2022-12-05T03:41:22;18.77;;;8.48;;
72037;SDS011;59900;50.788;12.904;2022-12-05T03:44:00;19.37;;;9.83;;
72037;SDS011;59900;50.788;12.904;2022-12-05T03:46:42;17.80;;;8.90;;
72037;SDS011;59900;50.788;12.904;2022-12-05T03:51:51;21.23;;;9.60;;
72037;SDS011;59900;50.788;12.904;2022-12-05T03:54:24;18.48;;;9.38;;
72037;SDS011;59900;50.788;12.904;2022-12-05T03:56:56;19.60;;;9.23;;
72037;SDS011;59900;50.788;12.904;2022-12-05T04:01:54;20.05;;;10.10;;
72037;SDS011;59900;50.788;12.904;2022-12-05T04:04:30;19.48;;;9.57;;
72037;SDS011;59900;50.788;12.904;2022-12-05T04:07:00;18.40;;;8.60;;
72037;SDS011;59900;50.788;12.904;2022-12-05T04:09:34;17.57;;;8.97;;
72037;SDS011;59900;50.788;12.904;2022-12-05T04:12:05;18.52;;;8.57;;
72037;SDS011;59900;50.788;12.904;2022-12-05T04:14:36;17.83;;;9.02;;
72037;SDS011;59900;50.788;12.904;2022-12-05T04:17:06;18.15;;;9.50;;
72037;SDS011;59900;50.788;12.904;2022-12-05T04:19:45;19.30;;;9.43;;
72037;SDS011;59900;50.788;12.904;2022-12-05T04:22:33;20.73;;;8.97;;
72037;SDS011;59900;50.788;12.904;2022-12-05T04:25:00;24.40;;;11.00;;
72037;SDS011;59900;50.788;12.904;2022-12-05T04:30:54;25.38;;;11.52;;
72037;SDS011;59900;50.788;12.904;2022-12-05T04:33:37;32.08;;;13.32;;
72037;SDS011;59900;50.788;12.904;2022-12-05T04:39:07;35.85;;;14.38;;
72037;SDS011;59900;50.788;12.904;2022-12-05T04:41:37;36.15;;;15.45;;
72037;SDS011;59900;50.788;12.904;2022-12-05T04:44:09;39.50;;;16.77;;
72037;SDS011;59900;50.788;12.904;2022-12-05T04:46:37;39.95;;;16.55;;
72037;SDS011;59900;50.788;12.904;2022-12-05T04:49:06;42.07;;;16.87;;
72037;SDS011;59900;50.788;12.904;2022-12-05T04:51:35;45.92;;;17.83;;
72037;SDS011;59900;50.788;12.904;2022-12-05T04:54:10;44.90;;;17.52;;
72037;SDS011;59900;50.788;12.904;2022-12-05T04:56:41;44.63;;;17.15;;
72037;SDS011;59900;50.788;12.904;2022-12-05T04:59:10;44.67;;;18.00;;
72037;SDS011;59900;50.788;12.904;2022-12-05T05:01:37;46.07;;;17.53;;
72037;SDS011;59900;50.788;12.904;2022-12-05T05:04:08;46.92;;;18.15;;
72037;SDS011;59900;50.788;12.904;2022-12-05T05:06:38;47.92;;;18.48;;
72037;SDS011;59900;50.788;12.904;2022-12-05T05:09:04;46.67;;;17.60;;
72037;SDS011;59900;50.788;12.904;2022-12-05T05:11:33;45.40;;;19.27;;
72037;SDS011;59900;50.788;12.904;2022-12-05T05:13:59;43.40;;;18.17;;
72037;SDS011;59900;50.788;12.904;2022-12-05T05:16:26;47.17;;;19.10;;
72037;SDS011;59900;50.788;12.904;2022-12-05T05:18:53;45.42;;;18.30;;
72037;SDS011;59900;50.788;12.904;2022-12-05T05:21:19;46.23;;;17.77;;
72037;SDS011;59900;50.788;12.904;2022-12-05T05:23:51;47.58;;;19.10;;
72037;SDS011;59900;50.788;12.904;2022-12-05T05:26:17;41.37;;;17.77;;
72037;SDS011;59900;50.788;12.904;2022-12-05T05:28:42;38.50;;;17.58;;
72037;SDS011;59900;50.788;12.904;2022-12-05T05:31:08;44.85;;;17.38;;
72037;SDS011;59900;50.788;12.904;2022-12-05T05:33:33;41.97;;;17.00;;
72037;SDS011;59900;50.788;12.904;2022-12-05T05:36:10;41.80;;;17.07;;
72037;SDS011;59900;50.788;12.904;2022-12-05T05:38:38;42.63;;;17.80;;
72037;SDS011;59900;50.788;12.904;2022-12-05T05:41:05;38.95;;;16.00;;
72037;SDS011;59900;50.788;12.904;2022-12-05T05:43:55;35.72;;;15.38;;
72037;SDS011;59900;50.788;12.904;2022-12-05T05:46:22;40.30;;;16.30;;
72037;SDS011;59900;50.788;12.904;2022-12-05T05:48:50;40.50;;;16.63;;
72037;SDS011;59900;50.788;12.904;2022-12-05T05:51:16;43.50;;;16.73;;
72037;SDS011;59900;50.788;12.904;2022-12-05T05:53:43;43.10;;;17.63;;
72037;SDS011;59900;50.788;12.904;2022-12-05T05:56:10;38.47;;;16.20;;
72037;SDS011;59900;50.788;12.904;2022-12-05T05:58:37;39.90;;;17.20;;
72037;SDS011;59900;50.788;12.904;2022-12-05T06:01:10;37.47;;;16.40;;
72037;SDS011;59900;50.788;12.904;2022-12-05T06:03:39;44.03;;;17.73;;
72037;SDS011;59900;50.788;12.904;2022-12-05T06:06:06;44.22;;;16.95;;
72037;SDS011;59900;50.788;12.904;2022-12-05T06:08:36;43.30;;;17.70;;
72037;SDS011;59900;50.788;12.904;2022-12-05T06:11:06;40.58;;;17.15;;
72037;SDS011;59900;50.788;12.904;2022-12-05T06:13:33;41.08;;;17.42;;
72037;SDS011;59900;50.788;12.904;2022-12-05T06:15:58;45.77;;;17.10;;
72037;SDS011;59900;50.788;12.904;2022-12-05T06:18:23;41.20;;;18.03;;
72037;SDS011;59900;50.788;12.904;2022-12-05T06:20:55;42.97;;;18.50;;
72037;SDS011;59900;50.788;12.904;2022-12-05T06:23:22;40.15;;;16.95;;
72037;SDS011;59900;50.788;12.904;2022-12-05T06:25:48;45.22;;;17.40;;
72037;SDS011;59900;50.788;12.904;2022-12-05T06:28:18;39.22;;;17.20;;
72037;SDS011;59900;50.788;12.904;2022-12-05T06:30:45;41.63;;;18.05;;
72037;SDS011;59900;50.788;12.904;2022-12-05T06:33:11;46.07;;;18.53;;
72037;SDS011;59900;50.788;12.904;2022-12-05T06:35:36;44.00;;;17.60;;
72037;SDS011;59900;50.788;12.904;2022-12-05T06:38:02;45.47;;;17.93;;
72037;SDS011;59900;50.788;12.904;2022-12-05T06:40:27;40.40;;;17.33;;
72037;SDS011;59900;50.788;12.904;2022-12-05T06:42:53;43.67;;;17.92;;
72037;SDS011;59900;50.788;12.904;2022-12-05T06:45:18;41.07;;;18.40;;
72037;SDS011;59900;50.788;12.904;2022-12-05T06:47:44;43.90;;;16.67;;
72037;SDS011;59900;50.788;12.904;2022-12-05T06:50:09;44.33;;;18.03;;
72037;SDS011;59900;50.788;12.904;2022-12-05T06:52:35;44.07;;;18.37;;
72037;SDS011;59900;50.788;12.904;2022-12-05T06:55:00;43.23;;;17.37;;
72037;SDS011;59900;50.788;12.904;2022-12-05T06:57:27;41.87;;;17.53;;
72037;SDS011;59900;50.788;12.904;2022-12-05T06:59:52;39.93;;;17.70;;
72037;SDS011;59900;50.788;12.904;2022-12-05T07:02:38;40.00;;;17.33;;
72037;SDS011;59900;50.788;12.904;2022-12-05T07:05:05;41.10;;;17.35;;
72037;SDS011;59900;50.788;12.904;2022-12-05T07:07:35;43.58;;;18.05;;
72037;SDS011;59900;50.788;12.904;2022-12-05T07:10:00;40.33;;;17.40;;
72037;SDS011;59900;50.788;12.904;2022-12-05T07:12:26;39.78;;;16.38;;
72037;SDS011;59900;50.788;12.904;2022-12-05T07:14:51;41.27;;;17.10;;
72037;SDS011;59900;50.788;12.904;2022-12-05T07:17:16;45.27;;;16.67;;
72037;SDS011;59900;50.788;12.904;2022-12-05T07:19:43;40.85;;;16.48;;
72037;SDS011;59900;50.788;12.904;2022-12-05T07:22:08;37.57;;;16.33;;
72037;SDS011;59900;50.788;12.904;2022-12-05T07:24:33;36.40;;;15.93;;
72037;SDS011;59900;50.788;12.904;2022-12-05T07:26:59;38.87;;;15.73;;
72037;SDS011;59900;50.788;12.904;2022-12-05T07:29:24;42.73;;;16.53;;
72037;SDS011;59900;50.788;12.904;2022-12-05T07:31:49;34.73;;;16.63;;
72037;SDS011;59900;50.788;12.904;2022-12-05T07:34:15;42.27;;;15.97;;
72037;SDS011;59900;50.788;12.904;2022-12-05T07:36:40;35.60;;;15.70;;
72037;SDS011;59900;50.788;12.904;2022-12-05T07:39:05;41.17;;;16.27;;
72037;SDS011;59900;50.788;12.904;2022-12-05T07:41:31;38.30;;;16.03;;
72037;SDS011;59900;50.788;12.904;2022-12-05T07:43:58;38.60;;;17.50;;
72037;SDS011;59900;50.788;12.904;2022-12-05T07:46:24;36.07;;;16.47;;
72037;SDS011;59900;50.788;12.904;2022-12-05T07:48:51;38.05;;;15.95;;
72037;SDS011;59900;50.788;12.904;2022-12-05T07:51:17;34.85;;;16.83;;
72037;SDS011;59900;50.788;12.904;2022-12-05T07:53:43;37.72;;;16.42;;
72037;SDS011;59900;50.788;12.904;2022-12-05T07:56:10;39.00;;;17.90;;
72037;SDS011;59900;50.788;12.904;2022-12-05T07:58:38;40.23;;;17.07;;
72037;SDS011;59900;50.788;12.904;2022-12-05T08:01:23;38.92;;;16.63;;
72037;SDS011;59900;50.788;12.904;2022-12-05T08:03:53;36.78;;;17.40;;
72037;SDS011;59900;50.788;12.904;2022-12-05T08:06:21;41.07;;;17.27;;
72037;SDS011;59900;50.788;12.904;2022-12-05T08:08:50;41.10;;;16.75;;
72037;SDS011;59900;50.788;12.904;2022-12-05T08:11:18;38.57;;;16.47;;
72037;SDS011;59900;50.788;12.904;2022-12-05T08:13:46;38.25;;;15.95;;
72037;SDS011;59900;50.788;12.904;2022-12-05T08:16:12;42.22;;;17.02;;
72037;SDS011;59900;50.788;12.904;2022-12-05T08:18:39;48.33;;;17.90;;
72037;SDS011;59900;50.788;12.904;2022-12-05T08:21:06;36.23;;;16.07;;
72037;SDS011;59900;50.788;12.904;2022-12-05T08:23:34;39.77;;;16.23;;
72037;SDS011;59900;50.788;12.904;2022-12-05T08:26:08;40.08;;;16.05;;
72037;SDS011;59900;50.788;12.904;2022-12-05T08:28:37;36.53;;;15.95;;
72037;SDS011;59900;50.788;12.904;2022-12-05T08:31:13;40.50;;;17.15;;
72037;SDS011;59900;50.788;12.904;2022-12-05T08:33:41;40.17;;;16.73;;
72037;SDS011;59900;50.788;12.904;2022-12-05T08:36:07;38.80;;;17.20;;
72037;SDS011;59900;50.788;12.904;2022-12-05T08:38:35;41.08;;;16.17;;
72037;SDS011;59900;50.788;12.904;2022-12-05T08:41:05;42.05;;;16.65;;
72037;SDS011;59900;50.788;12.904;2022-12-05T08:43:32;38.00;;;16.60;;
72037;SDS011;59900;50.788;12.904;2022-12-05T08:45:58;36.53;;;15.98;;
72037;SDS011;59900;50.788;12.904;2022-12-05T08:48:25;36.60;;;17.05;;
72037;SDS011;59900;50.788;12.904;2022-12-05T08:50:51;36.13;;;15.80;;
72037;SDS011;59900;50.788;12.904;2022-12-05T08:53:17;35.43;;;16.47;;
72037;SDS011;59900;50.788;12.904;2022-12-05T08:55:42;38.80;;;17.10;;
72037;SDS011;59900;50.788;12.904;2022-12-05T08:58:09;30.67;;;14.13;;
72037;SDS011;59900;50.788;12.904;2022-12-05T09:00:35;24.60;;;12.50;;
72037;SDS011;59900;50.788;12.904;2022-12-05T09:03:00;22.33;;;10.10;;
72037;SDS011;59900;50.788;12.904;2022-12-05T09:05:26;21.53;;;9.93;;
72037;SDS011;59900;50.788;12.904;2022-12-05T09:07:51;20.83;;;10.87;;
72037;SDS011;59900;50.788;12.904;2022-12-05T09:10:16;18.87;;;8.53;;
72037;SDS011;59900;50.788;12.904;2022-12-05T09:12:42;19.33;;;8.60;;
72037;SDS011;59900;50.788;12.904;2022-12-05T09:15:08;18.30;;;8.63;;
72037;SDS011;59900;50.788;12.904;2022-12-05T09:17:34;15.57;;;7.07;;
72037;SDS011;59900;50.788;12.904;2022-12-05T09:20:00;15.10;;;7.17;;
72037;SDS011;59900;50.788;12.904;2022-12-05T09:22:25;14.03;;;7.40;;
72037;SDS011;59900;50.788;12.904;2022-12-05T09:24:51;12.90;;;6.83;;
72037;SDS011;59900;50.788;12.904;2022-12-05T09:27:16;14.43;;;7.97;;
72037;SDS011;59900;50.788;12.904;2022-12-05T09:29:42;33.13;;;14.37;;
72037;SDS011;59900;50.788;12.904;2022-12-05T09:32:07;14.90;;;7.63;;
72037;SDS011;59900;50.788;12.904;2022-12-05T09:34:42;12.57;;;6.10;;
72037;SDS011;59900;50.788;12.904;2022-12-05T09:37:07;12.73;;;6.55;;
72037;SDS011;59900;50.788;12.904;2022-12-05T09:39:33;11.53;;;5.23;;
72037;SDS011;59900;50.788;12.904;2022-12-05T09:42:08;12.60;;;6.53;;
72037;SDS011;59900;50.788;12.904;2022-12-05T09:44:48;12.05;;;6.30;;
72037;SDS011;59900;50.788;12.904;2022-12-05T09:49:56;11.97;;;5.37;;
72037;SDS011;59900;50.788;12.904;2022-12-05T09:52:29;9.90;;;5.55;;
72037;SDS011;59900;50.788;12.904;2022-12-05T09:55:00;8.85;;;4.75;;
72037;SDS011;59900;50.788;12.904;2022-12-05T09:57:34;10.25;;;5.30;;
72037;SDS011;59900;50.788;12.904;2022-12-05T10:00:03;10.00;;;4.97;;
72037;SDS011;59900;50.788;12.904;2022-12-05T10:10:53;13.50;;;4.65;;
72037;SDS011;59900;50.788;12.904;2022-12-05T10:13:31;8.45;;;4.78;;
72037;SDS011;59900;50.788;12.904;2022-12-05T10:16:01;9.17;;;5.13;;
72037;SDS011;59900;50.788;12.904;2022-12-05T10:18:51;8.85;;;4.25;;
72037;SDS011;59900;50.788;12.904;2022-12-05T10:21:27;10.10;;;4.85;;
72037;SDS011;59900;50.788;12.904;2022-12-05T10:24:11;8.77;;;4.43;;
72037;SDS011;59900;50.788;12.904;2022-12-05T10:26:48;9.70;;;4.72;;
72037;SDS011;59900;50.788;12.904;2022-12-05T10:29:33;7.70;;;4.23;;
72037;SDS011;59900;50.788;12.904;2022-12-05T10:32:14;7.85;;;4.03;;
72037;SDS011;59900;50.788;12.904;2022-12-05T10:34:42;7.60;;;4.32;;
72037;SDS011;59900;50.788;12.904;2022-12-05T10:39:39;8.80;;;4.55;;
72037;SDS011;59900;50.788;12.904;2022-12-05T10:42:04;8.03;;;3.97;;
72037;SDS011;59900;50.788;12.904;2022-12-05T10:44:35;10.40;;;4.20;;
72037;SDS011;59900;50.788;12.904;2022-12-05T10:47:01;8.80;;;4.32;;
72037;SDS011;59900;50.788;12.904;2022-12-05T10:49:26;10.27;;;4.93;;
72037;SDS011;59900;50.788;12.904;2022-12-05T10:51:52;9.27;;;4.70;;
72037;SDS011;59900;50.788;12.904;2022-12-05T10:54:21;9.00;;;4.50;;
72037;SDS011;59900;50.788;12.904;2022-12-05T10:56:49;7.97;;;4.10;;
72037;SDS011;59900;50.788;12.904;2022-12-05T10:59:18;9.45;;;4.70;;
72037;SDS011;59900;50.788;12.904;2022-12-05T11:01:46;8.50;;;4.32;;
72037;SDS011;59900;50.788;12.904;2022-12-05T11:04:39;8.85;;;4.82;;
72037;SDS011;59900;50.788;12.904;2022-12-05T11:07:09;8.18;;;4.32;;
72037;SDS011;59900;50.788;12.904;2022-12-05T11:09:48;9.43;;;4.93;;
72037;SDS011;59900;50.788;12.904;2022-12-05T11:12:20;7.65;;;4.60;;
72037;SDS011;59900;50.788;12.904;2022-12-05T11:17:38;9.45;;;4.40;;
72037;SDS011;59900;50.788;12.904;2022-12-05T11:22:41;8.52;;;3.95;;
72037;SDS011;59900;50.788;12.904;2022-12-05T11:27:58;8.83;;;4.20;;
72037;SDS011;59900;50.788;12.904;2022-12-05T11:30:25;7.40;;;3.92;;
72037;SDS011;59900;50.788;12.904;2022-12-05T11:33:17;8.07;;;3.92;;
72037;SDS011;59900;50.788;12.904;2022-12-05T11:35:44;9.23;;;4.88;;
72037;SDS011;59900;50.788;12.904;2022-12-05T11:38:11;8.00;;;4.35;;
72037;SDS011;59900;50.788;12.904;2022-12-05T11:40:47;9.33;;;4.93;;
72037;SDS011;59900;50.788;12.904;2022-12-05T11:46:20;9.07;;;4.35;;
72037;SDS011;59900;50.788;12.904;2022-12-05T11:51:50;10.83;;;5.43;;
72037;SDS011;59900;50.788;12.904;2022-12-05T12:00:14;11.65;;;5.78;;
72037;SDS011;59900;50.788;12.904;2022-12-05T12:05:59;13.30;;;6.73;;
72037;SDS011;59900;50.788;12.904;2022-12-05T12:11:29;12.15;;;6.65;;
72037;SDS011;59900;50.788;12.904;2022-12-05T12:17:02;14.65;;;6.82;;
72037;SDS011;59900;50.788;12.904;2022-12-05T12:28:17;12.57;;;5.95;;
72037;SDS011;59900;50.788;12.904;2022-12-05T12:30:52;11.43;;;6.22;;
72037;SDS011;59900;50.788;12.904;2022-12-05T12:33:57;13.00;;;5.70;;
72037;SDS011;59900;50.788;12.904;2022-12-05T12:36:27;13.13;;;6.00;;
72037;SDS011;59900;50.788;12.904;2022-12-05T12:41:53;12.75;;;6.15;;
72037;SDS011;59900;50.788;12.904;2022-12-05T12:47:36;13.33;;;5.77;;
72037;SDS011;59900;50.788;12.904;2022-12-05T12:50:22;14.60;;;6.38;;
72037;SDS011;59900;50.788;12.904;2022-12-05T12:55:46;13.18;;;6.13;;
72037;SDS011;59900;50.788;12.904;2022-12-05T13:01:11;12.10;;;6.10;;
72037;SDS011;59900;50.788;12.904;2022-12-05T13:03:48;13.85;;;6.03;;
72037;SDS011;59900;50.788;12.904;2022-12-05T13:12:03;11.40;;;5.78;;
72037;SDS011;59900;50.788;12.904;2022-12-05T13:14:33;13.40;;;6.10;;
72037;SDS011;59900;50.788;12.904;2022-12-05T13:17:01;11.23;;;5.75;;
72037;SDS011;59900;50.788;12.904;2022-12-05T13:19:31;13.82;;;6.60;;
72037;SDS011;59900;50.788;12.904;2022-12-05T13:22:07;12.90;;;6.07;;
72037;SDS011;59900;50.788;12.904;2022-12-05T13:24:34;12.70;;;5.80;;
72037;SDS011;59900;50.788;12.904;2022-12-05T13:27:01;12.93;;;6.00;;
72037;SDS011;59900;50.788;12.904;2022-12-05T13:29:31;12.25;;;5.70;;
72037;SDS011;59900;50.788;12.904;2022-12-05T13:32:00;12.38;;;6.40;;
72037;SDS011;59900;50.788;12.904;2022-12-05T13:37:10;13.27;;;6.22;;
72037;SDS011;59900;50.788;12.904;2022-12-05T13:40:01;13.23;;;6.00;;
72037;SDS011;59900;50.788;12.904;2022-12-05T13:42:46;17.10;;;6.30;;
72037;SDS011;59900;50.788;12.904;2022-12-05T13:45:16;13.93;;;6.95;;
72037;SDS011;59900;50.788;12.904;2022-12-05T13:50:23;13.32;;;6.65;;
72037;SDS011;59900;50.788;12.904;2022-12-05T13:52:55;11.33;;;5.77;;
72037;SDS011;59900;50.788;12.904;2022-12-05T13:55:28;13.55;;;7.00;;
72037;SDS011;59900;50.788;12.904;2022-12-05T13:57:58;12.77;;;6.53;;
72037;SDS011;59900;50.788;12.904;2022-12-05T14:02:58;13.15;;;6.82;;
72037;SDS011;59900;50.788;12.904;2022-12-05T14:05:44;13.77;;;6.43;;
72037;SDS011;59900;50.788;12.904;2022-12-05T14:15:38;14.03;;;6.97;;
72037;SDS011;59900;50.788;12.904;2022-12-05T14:18:12;14.32;;;6.95;;
72037;SDS011;59900;50.788;12.904;2022-12-05T14:26:14;14.80;;;6.65;;
72037;SDS011;59900;50.788;12.904;2022-12-05T14:29:04;14.77;;;7.53;;
72037;SDS011;59900;50.788;12.904;2022-12-05T14:34:22;14.50;;;6.28;;
72037;SDS011;59900;50.788;12.904;2022-12-05T14:36:53;14.33;;;6.90;;
72037;SDS011;59900;50.788;12.904;2022-12-05T14:39:29;14.85;;;7.20;;
72037;SDS011;59900;50.788;12.904;2022-12-05T14:41:59;16.80;;;7.40;;
72037;SDS011;59900;50.788;12.904;2022-12-05T14:44:26;12.73;;;6.20;;
72037;SDS011;59900;50.788;12.904;2022-12-05T14:46:57;12.77;;;6.85;;
72037;SDS011;59900;50.788;12.904;2022-12-05T14:49:33;16.70;;;7.00;;
72037;SDS011;59900;50.788;12.904;2022-12-05T14:52:17;11.90;;;5.63;;
72037;SDS011;59900;50.788;12.904;2022-12-05T14:54:44;13.18;;;6.63;;
72037;SDS011;59900;50.788;12.904;2022-12-05T14:57:11;13.53;;;6.03;;
72037;SDS011;59900;50.788;12.904;2022-12-05T15:07:25;14.63;;;6.30;;
72037;SDS011;59900;50.788;12.904;2022-12-05T15:09:58;14.55;;;6.32;;
72037;SDS011;59900;50.788;12.904;2022-12-05T15:12:40;15.13;;;7.00;;
72037;SDS011;59900;50.788;12.904;2022-12-05T15:18:08;15.05;;;6.57;;
72037;SDS011;59900;50.788;12.904;2022-12-05T15:20:48;14.27;;;6.32;;
72037;SDS011;59900;50.788;12.904;2022-12-05T15:26:34;13.17;;;6.13;;
72037;SDS011;59900;50.788;12.904;2022-12-05T15:31:37;14.32;;;7.07;;
72037;SDS011;59900;50.788;12.904;2022-12-05T15:34:12;13.55;;;6.93;;
72037;SDS011;59900;50.788;12.904;2022-12-05T15:36:44;13.95;;;7.28;;
72037;SDS011;59900;50.788;12.904;2022-12-05T15:39:21;15.10;;;6.37;;
72037;SDS011;59900;50.788;12.904;2022-12-05T15:41:49;14.30;;;6.60;;
72037;SDS011;59900;50.788;12.904;2022-12-05T15:44:19;14.70;;;6.72;;
72037;SDS011;59900;50.788;12.904;2022-12-05T15:46:50;15.00;;;7.15;;
72037;SDS011;59900;50.788;12.904;2022-12-05T15:49:20;19.13;;;8.75;;
72037;SDS011;59900;50.788;12.904;2022-12-05T15:51:49;15.67;;;7.50;;
72037;SDS011;59900;50.788;12.904;2022-12-05T15:54:33;17.55;;;8.40;;
72037;SDS011;59900;50.788;12.904;2022-12-05T15:57:14;16.88;;;8.45;;
72037;SDS011;59900;50.788;12.904;2022-12-05T15:59:45;15.93;;;8.40;;
72037;SDS011;59900;50.788;12.904;2022-12-05T16:02:17;17.58;;;8.40;;
72037;SDS011;59900;50.788;12.904;2022-12-05T16:04:48;21.70;;;8.90;;
72037;SDS011;59900;50.788;12.904;2022-12-05T16:07:21;15.15;;;7.90;;
72037;SDS011;59900;50.788;12.904;2022-12-05T16:09:51;16.45;;;8.27;;
72037;SDS011;59900;50.788;12.904;2022-12-05T16:12:23;19.10;;;8.18;;
72037;SDS011;59900;50.788;12.904;2022-12-05T16:14:51;17.80;;;8.52;;
72037;SDS011;59900;50.788;12.904;2022-12-05T16:17:19;17.90;;;8.73;;
72037;SDS011;59900;50.788;12.904;2022-12-05T16:19:45;24.10;;;8.68;;
72037;SDS011;59900;50.788;12.904;2022-12-05T16:27:21;17.38;;;8.20;;
72037;SDS011;59900;50.788;12.904;2022-12-05T16:30:33;17.83;;;8.80;;
72037;SDS011;59900;50.788;12.904;2022-12-05T16:32:37;18.52;;;7.85;;
72037;SDS011;59900;50.788;12.904;2022-12-05T16:35:21;19.30;;;7.90;;
72037;SDS011;59900;50.788;12.904;2022-12-05T16:43:18;13.90;;;7.07;;
72037;SDS011;59900;50.788;12.904;2022-12-05T16:46:41;16.25;;;6.57;;
72037;SDS011;59900;50.788;12.904;2022-12-05T16:48:42;16.30;;;6.55;;
72037;SDS011;59900;50.788;12.904;2022-12-05T16:53:37;12.17;;;5.63;;
72037;SDS011;59900;50.788;12.904;2022-12-05T16:56:23;13.95;;;6.43;;
72037;SDS011;59900;50.788;12.904;2022-12-05T16:58:50;12.25;;;6.00;;
72037;SDS011;59900;50.788;12.904;2022-12-05T17:01:16;11.53;;;6.00;;
72037;SDS011;59900;50.788;12.904;2022-12-05T17:03:46;12.75;;;5.97;;